createdAt,value
2022-08-03T00:02:50.684Z,20.72
2022-08-03T00:06:03.939Z,20.69
2022-08-03T00:09:09.377Z,20.63
2022-08-03T00:12:13.663Z,20.65
2022-08-03T00:15:18.025Z,20.68
2022-08-03T00:18:22.137Z,20.75
2022-08-03T00:21:26.239Z,20.74
2022-08-03T00:24:31.366Z,20.73
2022-08-03T00:27:35.518Z,20.73
2022-08-03T00:30:39.773Z,20.70
2022-08-03T00:33:59.132Z,20.68
2022-08-03T00:37:03.789Z,20.65
2022-08-03T00:40:08.769Z,20.61
2022-08-03T00:43:12.607Z,20.62
2022-08-03T00:46:21.332Z,20.62
2022-08-03T00:49:25.837Z,20.60
2022-08-03T00:52:29.945Z,20.62
2022-08-03T00:55:35.928Z,20.54
2022-08-03T00:58:39.931Z,20.52
2022-08-03T01:01:44.229Z,20.51
2022-08-03T01:04:48.307Z,20.47
2022-08-03T01:08:14.235Z,20.50
2022-08-03T01:11:29.886Z,20.47
2022-08-03T01:14:54.100Z,20.46
2022-08-03T01:18:16.963Z,20.45
2022-08-03T01:21:33.191Z,20.46
2022-08-03T01:24:49.099Z,20.48
2022-08-03T01:28:27.078Z,20.51
2022-08-03T01:32:59.812Z,20.47
2022-08-03T01:35:28.056Z,20.44
2022-08-03T01:38:38.606Z,20.42
2022-08-03T01:41:49.220Z,20.39
2022-08-03T01:44:53.992Z,20.32
2022-08-03T01:47:59.075Z,20.30
2022-08-03T01:51:04.590Z,20.33
2022-08-03T01:54:12.664Z,20.26
2022-08-03T01:57:19.784Z,20.27
2022-08-03T02:00:25.370Z,20.22
2022-08-03T02:03:31.803Z,20.23
2022-08-03T02:07:00.578Z,20.20
2022-08-03T02:10:05.312Z,20.16
2022-08-03T02:13:10.552Z,20.10
2022-08-03T02:16:14.832Z,20.09
2022-08-03T02:19:19.564Z,20.11
2022-08-03T02:22:25.009Z,20.07
2022-08-03T02:25:30.351Z,20.01
2022-08-03T02:28:41.467Z,20.02
2022-08-03T02:31:46.430Z,20.00
2022-08-03T02:34:52.950Z,20.00
2022-08-03T02:38:02.209Z,20.01
2022-08-03T02:41:13.509Z,19.97
2022-08-03T02:44:20.853Z,19.94
2022-08-03T02:47:27.648Z,19.93
2022-08-03T02:50:33.936Z,19.90
2022-08-03T02:53:39.969Z,19.89
2022-08-03T02:56:45.190Z,19.89
2022-08-03T02:59:50.498Z,19.87
2022-08-03T03:02:57.817Z,19.86
2022-08-03T03:06:05.600Z,19.82
2022-08-03T03:09:10.865Z,19.80
2022-08-03T03:12:17.089Z,19.78
2022-08-03T03:15:23.172Z,19.80
2022-08-03T03:18:29.385Z,19.77
2022-08-03T03:21:33.881Z,19.75
2022-08-03T03:24:39.707Z,19.70
2022-08-03T03:27:43.691Z,19.66
2022-08-03T03:30:53.743Z,19.64
2022-08-03T03:33:58.402Z,19.62
2022-08-03T03:37:02.657Z,19.61
2022-08-03T03:40:08.950Z,19.58
2022-08-03T03:43:13.752Z,19.55
2022-08-03T03:46:18.348Z,19.54
2022-08-03T03:49:22.492Z,19.55
2022-08-03T03:52:26.589Z,19.56
2022-08-03T03:55:31.124Z,19.54
2022-08-03T03:58:35.175Z,19.54
2022-08-03T04:01:39.497Z,19.52
2022-08-03T04:05:01.893Z,19.49
2022-08-03T04:08:36.157Z,19.51
2022-08-03T04:11:47.512Z,19.49
2022-08-03T04:14:56.753Z,19.52
2022-08-03T04:18:02.671Z,19.53
2022-08-03T04:21:11.233Z,19.55
2022-08-03T04:24:16.140Z,19.53
2022-08-03T04:27:28.623Z,19.54
2022-08-03T04:30:36.074Z,19.54
2022-08-03T04:33:41.791Z,19.55
2022-08-03T04:36:49.885Z,19.59
2022-08-03T04:39:57.814Z,19.62
2022-08-03T04:43:03.270Z,19.63
2022-08-03T04:46:08.190Z,19.64
2022-08-03T04:49:12.659Z,19.69
2022-08-03T04:52:17.389Z,19.73
2022-08-03T04:55:32.600Z,19.76
2022-08-03T04:58:36.395Z,19.81
2022-08-03T05:01:42.128Z,19.86
2022-08-03T05:04:46.865Z,19.92
2022-08-03T05:07:51.231Z,19.96
2022-08-03T05:10:58.931Z,20.00
2022-08-03T05:14:03.441Z,20.05
2022-08-03T05:17:08.144Z,20.13
2022-08-03T05:20:12.470Z,20.21
2022-08-03T05:23:16.469Z,20.25
2022-08-03T05:26:20.749Z,20.28
2022-08-03T05:29:25.077Z,20.36
2022-08-03T05:32:29.114Z,20.44
2022-08-03T05:35:55.952Z,20.49
2022-08-03T05:39:02.596Z,20.55
2022-08-03T05:42:06.957Z,20.60
2022-08-03T05:45:14.934Z,20.68
2022-08-03T05:48:18.797Z,20.74
2022-08-03T05:51:23.481Z,20.87
2022-08-03T05:54:56.819Z,20.92
2022-08-03T05:57:51.923Z,21.01
2022-08-03T06:00:59.570Z,21.10
2022-08-03T06:04:03.834Z,21.20
2022-08-03T06:07:07.798Z,21.28
2022-08-03T06:10:36.611Z,21.42
2022-08-03T06:13:36.051Z,21.48
2022-08-03T06:16:40.520Z,21.62
2022-08-03T06:19:44.630Z,21.70
2022-08-03T06:22:51.056Z,21.82
2022-08-03T06:26:04.995Z,21.93
2022-08-03T06:29:09.031Z,22.04
2022-08-03T06:32:14.225Z,22.16
2022-08-03T06:35:18.750Z,22.25
2022-08-03T06:38:23.200Z,22.34
2022-08-03T06:41:28.047Z,22.47
2022-08-03T06:44:32.105Z,22.58
2022-08-03T06:47:37.282Z,22.67
2022-08-03T06:50:42.608Z,22.76
2022-08-03T06:53:46.772Z,22.97
2022-08-03T06:56:50.599Z,23.19
2022-08-03T07:00:09.679Z,23.40
2022-08-03T07:03:15.912Z,23.64
2022-08-03T07:06:20.354Z,23.94
2022-08-03T07:09:26.376Z,24.09
2022-08-03T07:12:31.714Z,24.23
2022-08-03T07:15:53.921Z,24.51
2022-08-03T07:18:59.269Z,24.93
2022-08-03T07:22:04.265Z,25.35
2022-08-03T07:25:09.442Z,25.85
2022-08-03T07:28:13.471Z,26.17
2022-08-03T07:31:17.320Z,26.31
2022-08-03T07:34:21.355Z,26.12
2022-08-03T07:37:25.601Z,26.11
2022-08-03T07:40:31.730Z,26.12
2022-08-03T07:43:36.410Z,26.19
2022-08-03T07:46:40.325Z,26.31
2022-08-03T07:49:44.585Z,27.22
2022-08-03T07:52:50.093Z,28.07
2022-08-03T07:55:54.599Z,28.78
2022-08-03T07:58:59.773Z,29.09
2022-08-03T08:02:03.892Z,29.80
2022-08-03T08:05:08.436Z,31.02
2022-08-03T08:08:12.207Z,32.65
2022-08-03T08:11:16.264Z,34.23
2022-08-03T08:14:20.566Z,33.82
2022-08-03T08:17:24.997Z,34.54
2022-08-03T08:20:32.360Z,32.94
2022-08-03T08:23:43.096Z,32.78
2022-08-03T08:26:49.478Z,33.84
2022-08-03T08:29:56.343Z,35.00
2022-08-03T08:33:03.202Z,35.62
2022-08-03T08:36:09.924Z,36.28
2022-08-03T08:39:17.839Z,36.39
2022-08-03T08:42:23.638Z,36.26
2022-08-03T08:45:27.808Z,35.64
2022-08-03T08:48:32.254Z,35.67
2022-08-03T08:51:50.547Z,35.38
2022-08-03T08:55:06.917Z,34.89
2022-08-03T08:58:12.994Z,35.25
2022-08-03T09:01:25.706Z,35.05
2022-08-03T09:04:30.750Z,35.23
2022-08-03T09:07:35.005Z,34.41
2022-08-03T09:10:38.855Z,34.63
2022-08-03T09:13:42.918Z,34.18
2022-08-03T09:17:04.696Z,33.96
2022-08-03T09:20:09.865Z,33.50
2022-08-03T09:23:59.685Z,33.28
2022-08-03T09:26:38.585Z,32.73
2022-08-03T09:29:48.635Z,32.56
2022-08-03T09:33:00.672Z,32.70
2022-08-03T09:36:05.140Z,33.03
2022-08-03T09:39:11.966Z,32.71
2022-08-03T09:42:18.373Z,32.75
2022-08-03T09:45:29.988Z,32.44
2022-08-03T09:48:35.462Z,32.19
2022-08-03T09:52:39.352Z,31.94
2022-08-03T09:56:32.818Z,31.80
2022-08-03T09:58:46.432Z,31.87
2022-08-03T10:01:50.414Z,31.95
2022-08-03T10:04:54.609Z,31.66
2022-08-03T10:07:58.577Z,31.46
2022-08-03T10:11:02.612Z,31.38
2022-08-03T10:14:08.783Z,31.10
2022-08-03T10:17:13.732Z,31.12
2022-08-03T10:20:18.055Z,31.01
2022-08-03T10:23:22.880Z,30.97
2022-08-03T10:26:30.248Z,31.01
2022-08-03T10:29:38.989Z,30.96
2022-08-03T10:32:59.970Z,30.78
2022-08-03T10:36:07.419Z,30.69
2022-08-03T10:39:16.139Z,30.68
2022-08-03T10:42:27.106Z,30.76
2022-08-03T10:45:35.435Z,30.72
2022-08-03T10:48:39.498Z,30.71
2022-08-03T10:51:45.851Z,30.82
2022-08-03T10:55:10.072Z,30.80
2022-08-03T10:58:15.261Z,30.79
2022-08-03T11:01:59.144Z,30.97
2022-08-03T11:05:30.642Z,31.07
2022-08-03T11:08:34.951Z,31.08
2022-08-03T11:11:43.421Z,31.15
2022-08-03T11:14:48.898Z,31.17
2022-08-03T11:18:12.321Z,31.26
2022-08-03T11:21:16.834Z,31.39
2022-08-03T11:24:36.310Z,31.35
2022-08-03T11:27:40.133Z,31.46
2022-08-03T11:30:44.148Z,31.41
2022-08-03T11:34:07.797Z,31.53
2022-08-03T11:37:27.494Z,31.37
2022-08-03T11:40:41.451Z,31.49
2022-08-03T11:43:45.981Z,31.50
2022-08-03T11:46:50.346Z,31.58
2022-08-03T11:50:00.252Z,31.71
2022-08-03T11:53:06.951Z,31.56
2022-08-03T11:56:12.623Z,31.63
2022-08-03T11:59:21.826Z,31.66
2022-08-03T12:02:27.318Z,31.74
2022-08-03T12:05:38.551Z,31.65
2022-08-03T12:08:45.077Z,31.56
2022-08-03T12:12:00.263Z,31.44
2022-08-03T12:15:06.113Z,31.40
2022-08-03T12:18:15.630Z,31.28
2022-08-03T12:21:24.290Z,31.32
2022-08-03T12:24:41.259Z,31.40
2022-08-03T12:27:45.584Z,31.42
2022-08-03T12:30:51.752Z,31.56
2022-08-03T12:34:05.052Z,31.56
2022-08-03T12:37:22.255Z,31.50
2022-08-03T12:40:28.376Z,31.59
2022-08-03T12:43:36.587Z,31.65
2022-08-03T12:46:47.673Z,31.66
2022-08-03T12:49:54.220Z,31.70
2022-08-03T12:52:58.808Z,31.70
2022-08-03T12:56:06.084Z,31.76
2022-08-03T12:59:35.417Z,31.78
2022-08-03T13:02:46.465Z,31.76
2022-08-03T13:05:50.607Z,31.77
2022-08-03T13:09:06.642Z,31.80
2022-08-03T13:12:20.967Z,31.89
2022-08-03T13:15:26.645Z,32.08
2022-08-03T13:18:37.721Z,32.05
2022-08-03T13:22:01.905Z,31.82
2022-08-03T13:25:06.598Z,31.95
2022-08-03T13:28:14.152Z,31.98
2022-08-03T13:31:18.644Z,31.98
2022-08-03T13:34:24.243Z,31.82
2022-08-03T13:37:29.412Z,31.67
2022-08-03T13:40:41.459Z,31.71
2022-08-03T13:43:46.118Z,31.80
2022-08-03T13:46:50.682Z,31.79
2022-08-03T13:49:59.632Z,31.79
2022-08-03T13:53:04.553Z,31.83
2022-08-03T13:56:08.595Z,31.88
2022-08-03T13:59:12.453Z,31.80
2022-08-03T14:02:16.498Z,31.82
2022-08-03T14:05:20.901Z,31.90
2022-08-03T14:08:25.191Z,31.86
2022-08-03T14:12:06.841Z,31.77
2022-08-03T14:14:53.053Z,31.73
2022-08-03T14:17:58.564Z,31.79
2022-08-03T14:21:06.755Z,31.73
2022-08-03T14:24:10.901Z,31.72
2022-08-03T14:27:14.813Z,31.83
2022-08-03T14:30:19.492Z,31.92
2022-08-03T14:33:24.335Z,32.04
2022-08-03T14:36:28.246Z,31.87
2022-08-03T14:42:56.349Z,31.71
2022-08-03T14:46:00.685Z,31.77
2022-08-03T14:50:38.545Z,31.79
2022-08-03T14:52:30.074Z,31.87
2022-08-03T14:55:35.082Z,31.84
2022-08-03T14:58:43.500Z,31.72
2022-08-03T15:02:04.903Z,31.78
2022-08-03T15:05:12.653Z,31.70
2022-08-03T15:08:16.718Z,31.66
2022-08-03T15:11:20.760Z,31.50
2022-08-03T15:14:33.239Z,31.42
2022-08-03T15:17:42.849Z,31.35
2022-08-03T15:20:48.968Z,31.40
2022-08-03T15:23:54.111Z,31.37
2022-08-03T15:26:58.695Z,31.34
2022-08-03T15:30:10.116Z,31.28
2022-08-03T15:33:14.585Z,31.21
2022-08-03T15:36:19.030Z,31.27
2022-08-03T15:39:22.896Z,31.34
2022-08-03T15:42:32.726Z,31.37
2022-08-03T15:45:37.430Z,31.36
2022-08-03T15:48:41.648Z,31.33
2022-08-03T15:51:45.546Z,31.33
2022-08-03T15:54:49.464Z,31.62
2022-08-03T15:59:03.570Z,31.54
2022-08-03T16:01:20.314Z,31.46
2022-08-03T16:04:24.345Z,31.34
2022-08-03T16:08:03.167Z,31.25
2022-08-03T16:11:08.977Z,31.19
2022-08-03T16:14:34.475Z,31.21
2022-08-03T16:17:38.379Z,31.23
2022-08-03T16:20:43.229Z,31.14
2022-08-03T16:23:48.176Z,31.01
2022-08-03T16:26:52.026Z,31.07
2022-08-03T16:29:55.837Z,31.08
2022-08-03T16:32:59.848Z,30.99
2022-08-03T16:36:04.105Z,30.87
2022-08-03T16:39:08.297Z,30.81
2022-08-03T16:42:12.174Z,30.84
2022-08-03T16:45:16.372Z,30.89
2022-08-03T16:48:20.734Z,30.83
2022-08-03T16:51:24.849Z,30.85
2022-08-03T16:54:44.686Z,30.86
2022-08-03T16:57:59.710Z,30.83
2022-08-03T17:01:20.964Z,31.03
2022-08-03T17:04:28.438Z,30.97
2022-08-03T17:07:33.305Z,31.02
2022-08-03T17:10:37.837Z,30.96
2022-08-03T17:13:44.099Z,31.06
2022-08-03T17:16:53.771Z,31.08
2022-08-03T17:19:59.905Z,30.86
2022-08-03T17:23:34.431Z,30.75
2022-08-03T17:26:45.755Z,30.61
2022-08-03T17:30:00.986Z,30.44
2022-08-03T17:33:06.660Z,30.34
2022-08-03T17:36:37.027Z,30.29
2022-08-03T17:39:58.808Z,30.24
2022-08-03T17:44:13.974Z,30.21
2022-08-03T17:46:27.497Z,30.11
2022-08-03T17:49:39.773Z,30.02
2022-08-03T17:52:48.174Z,29.99
2022-08-03T17:56:44.772Z,29.86
2022-08-03T18:00:27.017Z,29.80
2022-08-03T18:03:58.803Z,29.77
2022-08-03T18:07:11.556Z,29.86
2022-08-03T18:10:22.936Z,30.05
2022-08-03T18:13:31.205Z,30.06
2022-08-03T18:16:43.718Z,29.96
2022-08-03T18:20:00.944Z,29.71
2022-08-03T18:23:09.718Z,29.49
2022-08-03T18:26:16.212Z,29.42
2022-08-03T18:29:22.355Z,29.44
2022-08-03T18:32:27.736Z,29.35
2022-08-03T18:35:53.589Z,29.16
2022-08-03T18:38:59.969Z,28.93
2022-08-03T18:42:07.759Z,28.76
2022-08-03T18:45:57.141Z,28.66
2022-08-03T18:49:21.646Z,28.59
2022-08-03T18:52:37.331Z,28.61
2022-08-03T18:56:01.897Z,28.62
2022-08-03T18:59:30.080Z,28.42
2022-08-03T19:02:51.461Z,28.29
2022-08-03T19:06:09.479Z,28.28
2022-08-03T19:09:37.242Z,28.29
2022-08-03T19:12:58.915Z,28.29
2022-08-03T19:16:11.910Z,28.14
2022-08-03T19:19:18.978Z,28.00
2022-08-03T19:22:27.136Z,27.85
2022-08-03T19:25:35.297Z,27.70
2022-08-03T19:28:41.003Z,27.57
2022-08-03T19:31:58.992Z,27.52
2022-08-03T19:35:13.357Z,27.52
2022-08-03T19:38:29.292Z,27.44
2022-08-03T19:41:41.955Z,27.35
2022-08-03T19:44:51.161Z,27.23
2022-08-03T19:48:09.954Z,27.12
2022-08-03T19:51:14.439Z,27.10
2022-08-03T19:54:29.402Z,27.05
2022-08-03T19:57:35.812Z,27.00
2022-08-03T20:00:40.299Z,26.89
2022-08-03T20:03:53.116Z,26.81
2022-08-03T20:06:58.205Z,26.74
2022-08-03T20:10:05.906Z,26.68
2022-08-03T20:13:09.877Z,26.62
2022-08-03T20:16:14.062Z,26.53
2022-08-03T20:19:21.417Z,26.44
2022-08-03T20:22:27.909Z,26.41
2022-08-03T20:25:39.445Z,26.34
2022-08-03T20:28:56.675Z,26.31
2022-08-03T20:32:01.380Z,26.26
2022-08-03T20:35:05.699Z,26.22
2022-08-03T20:38:14.361Z,26.17
2022-08-03T20:41:19.791Z,26.13
2022-08-03T20:44:25.749Z,26.08
2022-08-03T20:47:30.818Z,26.02
2022-08-03T20:50:38.954Z,25.93
2022-08-03T20:53:59.549Z,25.88
2022-08-03T20:57:07.110Z,25.84
2022-08-03T21:00:16.621Z,25.76
2022-08-03T21:03:20.909Z,25.73
2022-08-03T21:06:31.431Z,25.66
2022-08-03T21:09:49.400Z,25.60
2022-08-03T21:13:15.880Z,25.55
2022-08-03T21:16:26.858Z,25.53
2022-08-03T21:19:32.746Z,25.49
2022-08-03T21:22:45.258Z,25.45
2022-08-03T21:25:50.541Z,25.40
2022-08-03T21:28:56.460Z,25.37
2022-08-03T21:32:01.142Z,25.30
2022-08-03T21:35:06.897Z,25.24
2022-08-03T21:38:19.781Z,25.17
2022-08-03T21:41:29.854Z,25.08
2022-08-03T21:44:34.090Z,25.02
2022-08-03T21:47:41.894Z,24.99
2022-08-03T21:50:49.768Z,24.97
2022-08-03T21:54:03.020Z,24.96
2022-08-03T21:57:13.907Z,25.01
2022-08-03T22:00:20.800Z,25.12
2022-08-03T22:03:26.951Z,25.06
2022-08-03T22:06:31.928Z,24.96
2022-08-03T22:09:36.850Z,24.85
2022-08-03T22:12:41.949Z,24.69
2022-08-03T22:15:47.811Z,24.62
2022-08-03T22:18:52.134Z,24.54
2022-08-03T22:21:56.481Z,24.49
2022-08-03T22:25:21.233Z,24.47
2022-08-03T22:28:30.514Z,24.42
2022-08-03T22:31:57.434Z,24.46
2022-08-03T22:35:04.148Z,24.44
2022-08-03T22:38:09.949Z,24.43
2022-08-03T22:41:15.706Z,24.43
2022-08-03T22:44:19.613Z,24.37
2022-08-03T22:47:24.168Z,24.35
2022-08-03T22:50:31.375Z,24.33
2022-08-03T22:53:38.933Z,24.34
2022-08-03T22:56:46.383Z,24.34
2022-08-03T22:59:50.477Z,24.28
2022-08-03T23:02:56.806Z,24.24
2022-08-03T23:06:03.603Z,24.15
2022-08-03T23:09:11.322Z,24.13
2022-08-03T23:12:20.102Z,24.10
2022-08-03T23:15:27.463Z,24.04
2022-08-03T23:18:37.356Z,24.07
2022-08-03T23:21:53.676Z,24.19
2022-08-03T23:25:05.979Z,24.27
2022-08-03T23:28:15.049Z,24.24
2022-08-03T23:31:21.509Z,24.12
2022-08-03T23:34:45.518Z,24.05
2022-08-03T23:38:22.276Z,23.87
2022-08-03T23:41:17.655Z,23.81
2022-08-03T23:44:23.122Z,23.76
2022-08-03T23:47:47.299Z,23.64
2022-08-03T23:50:59.049Z,23.62
2022-08-03T23:54:05.527Z,23.54
2022-08-03T23:57:18.672Z,23.52
